sensor_id;sensor_type;location;lat;lon;timestamp;pressure;altitude;pressure_sealevel;temperature;humidity
9740;BME280;4909;42.680;26.324;2023-04-15T00:00:43;97905.94;;;14.63;100.00
9740;BME280;4909;42.680;26.324;2023-04-15T00:03:09;97910.75;;;14.58;100.00
9740;BME280;4909;42.680;26.324;2023-04-15T00:05:36;97905.75;;;14.66;100.00
9740;BME280;4909;42.680;26.324;2023-04-15T00:08:04;97885.09;;;14.68;100.00
9740;BME280;4909;42.680;26.324;2023-04-15T00:10:32;97880.94;;;14.64;100.00
9740;BME280;4909;42.680;26.324;2023-04-15T00:12:59;97888.41;;;14.71;100.00
9740;BME280;4909;42.680;26.324;2023-04-15T00:15:27;97878.13;;;14.78;100.00
9740;BME280;4909;42.680;26.324;2023-04-15T00:17:54;97871.38;;;14.85;100.00
9740;BME280;4909;42.680;26.324;2023-04-15T00:20:21;97868.97;;;14.69;100.00
9740;BME280;4909;42.680;26.324;2023-04-15T00:22:48;97886.75;;;14.82;100.00
9740;BME280;4909;42.680;26.324;2023-04-15T00:25:16;97903.34;;;14.74;100.00
9740;BME280;4909;42.680;26.324;2023-04-15T00:27:43;97932.66;;;14.63;100.00
9740;BME280;4909;42.680;26.324;2023-04-15T00:30:12;97916.91;;;14.47;100.00
9740;BME280;4909;42.680;26.324;2023-04-15T00:32:38;97913.25;;;14.35;100.00
9740;BME280;4909;42.680;26.324;2023-04-15T00:35:07;97906.22;;;14.09;100.00
9740;BME280;4909;42.680;26.324;2023-04-15T00:37:34;97906.00;;;14.00;100.00
9740;BME280;4909;42.680;26.324;2023-04-15T00:40:01;97864.72;;;13.92;100.00
9740;BME280;4909;42.680;26.324;2023-04-15T00:42:31;97912.81;;;14.29;100.00
9740;BME280;4909;42.680;26.324;2023-04-15T00:44:58;97900.44;;;14.15;100.00
9740;BME280;4909;42.680;26.324;2023-04-15T00:47:26;97914.19;;;14.34;100.00
9740;BME280;4909;42.680;26.324;2023-04-15T00:49:55;97910.16;;;14.42;100.00
9740;BME280;4909;42.680;26.324;2023-04-15T00:52:22;97902.78;;;14.32;100.00
9740;BME280;4909;42.680;26.324;2023-04-15T00:54:49;97898.28;;;14.33;100.00
9740;BME280;4909;42.680;26.324;2023-04-15T00:57:17;97904.69;;;14.43;100.00
9740;BME280;4909;42.680;26.324;2023-04-15T00:59:45;97924.47;;;14.41;100.00
9740;BME280;4909;42.680;26.324;2023-04-15T01:02:12;97930.88;;;14.51;100.00
9740;BME280;4909;42.680;26.324;2023-04-15T01:04:39;97930.97;;;14.49;100.00
9740;BME280;4909;42.680;26.324;2023-04-15T01:07:07;97925.31;;;14.54;100.00
9740;BME280;4909;42.680;26.324;2023-04-15T01:09:34;97917.41;;;14.52;100.00
9740;BME280;4909;42.680;26.324;2023-04-15T01:12:00;97906.66;;;14.41;100.00
9740;BME280;4909;42.680;26.324;2023-04-15T01:14:28;97891.16;;;14.21;100.00
9740;BME280;4909;42.680;26.324;2023-04-15T01:16:57;97904.50;;;14.21;100.00
9740;BME280;4909;42.680;26.324;2023-04-15T01:19:23;97910.47;;;14.24;100.00
9740;BME280;4909;42.680;26.324;2023-04-15T01:21:50;97930.78;;;14.40;100.00
9740;BME280;4909;42.680;26.324;2023-04-15T01:24:17;97917.94;;;14.32;100.00
9740;BME280;4909;42.680;26.324;2023-04-15T01:26:46;97909.41;;;14.27;100.00
9740;BME280;4909;42.680;26.324;2023-04-15T01:29:14;97898.63;;;14.16;100.00
9740;BME280;4909;42.680;26.324;2023-04-15T01:31:48;97884.34;;;14.17;100.00
9740;BME280;4909;42.680;26.324;2023-04-15T01:34:16;97888.59;;;14.19;100.00
9740;BME280;4909;42.680;26.324;2023-04-15T01:36:43;97904.19;;;14.25;100.00
9740;BME280;4909;42.680;26.324;2023-04-15T01:39:09;97907.69;;;14.39;100.00
9740;BME280;4909;42.680;26.324;2023-04-15T01:41:36;97907.69;;;14.51;100.00
9740;BME280;4909;42.680;26.324;2023-04-15T01:44:05;97907.75;;;14.62;100.00
9740;BME280;4909;42.680;26.324;2023-04-15T01:46:32;97919.44;;;14.49;100.00
9740;BME280;4909;42.680;26.324;2023-04-15T01:48:59;97928.88;;;14.42;100.00
9740;BME280;4909;42.680;26.324;2023-04-15T01:51:26;97938.03;;;14.50;100.00
9740;BME280;4909;42.680;26.324;2023-04-15T01:53:53;97939.41;;;14.43;100.00
9740;BME280;4909;42.680;26.324;2023-04-15T01:56:21;97926.53;;;14.37;100.00
9740;BME280;4909;42.680;26.324;2023-04-15T01:58:48;97928.41;;;14.35;100.00
9740;BME280;4909;42.680;26.324;2023-04-15T02:01:16;97915.16;;;14.33;100.00
9740;BME280;4909;42.680;26.324;2023-04-15T02:03:45;97903.50;;;14.34;100.00
9740;BME280;4909;42.680;26.324;2023-04-15T02:06:12;97912.94;;;14.40;100.00
9740;BME280;4909;42.680;26.324;2023-04-15T02:08:38;97917.94;;;14.45;100.00
9740;BME280;4909;42.680;26.324;2023-04-15T02:11:05;97914.66;;;14.41;100.00
9740;BME280;4909;42.680;26.324;2023-04-15T02:13:32;97906.31;;;14.20;100.00
9740;BME280;4909;42.680;26.324;2023-04-15T02:15:59;97906.41;;;14.44;100.00
9740;BME280;4909;42.680;26.324;2023-04-15T02:18:27;97908.75;;;14.49;100.00
9740;BME280;4909;42.680;26.324;2023-04-15T02:20:54;97933.94;;;14.57;100.00
9740;BME280;4909;42.680;26.324;2023-04-15T02:23:22;97924.97;;;14.58;100.00
9740;BME280;4909;42.680;26.324;2023-04-15T02:25:49;97930.22;;;14.60;100.00
9740;BME280;4909;42.680;26.324;2023-04-15T02:28:16;97942.03;;;14.68;100.00
9740;BME280;4909;42.680;26.324;2023-04-15T02:30:46;97947.63;;;14.65;100.00
9740;BME280;4909;42.680;26.324;2023-04-15T02:33:13;97940.78;;;14.61;100.00
9740;BME280;4909;42.680;26.324;2023-04-15T02:35:41;97935.47;;;14.49;100.00
9740;BME280;4909;42.680;26.324;2023-04-15T02:38:09;97931.63;;;14.27;100.00
9740;BME280;4909;42.680;26.324;2023-04-15T02:40:36;97950.09;;;14.18;100.00
9740;BME280;4909;42.680;26.324;2023-04-15T02:43:03;97973.78;;;14.22;100.00
9740;BME280;4909;42.680;26.324;2023-04-15T02:45:31;97981.59;;;14.38;100.00
9740;BME280;4909;42.680;26.324;2023-04-15T02:47:58;97980.31;;;14.44;100.00
9740;BME280;4909;42.680;26.324;2023-04-15T02:50:28;97944.97;;;14.27;100.00
9740;BME280;4909;42.680;26.324;2023-04-15T02:52:57;97969.31;;;14.48;100.00
9740;BME280;4909;42.680;26.324;2023-04-15T02:55:25;97949.88;;;14.21;100.00
9740;BME280;4909;42.680;26.324;2023-04-15T02:57:52;97941.56;;;14.13;100.00
9740;BME280;4909;42.680;26.324;2023-04-15T03:00:19;97952.97;;;14.27;100.00
9740;BME280;4909;42.680;26.324;2023-04-15T03:02:46;97949.00;;;14.33;100.00
9740;BME280;4909;42.680;26.324;2023-04-15T03:05:16;97961.75;;;14.42;100.00
9740;BME280;4909;42.680;26.324;2023-04-15T03:07:43;97965.47;;;14.52;100.00
9740;BME280;4909;42.680;26.324;2023-04-15T03:10:11;97971.78;;;14.51;100.00
9740;BME280;4909;42.680;26.324;2023-04-15T03:12:38;97973.50;;;14.52;100.00
9740;BME280;4909;42.680;26.324;2023-04-15T03:15:06;97971.03;;;14.62;100.00
9740;BME280;4909;42.680;26.324;2023-04-15T03:17:33;97939.59;;;14.53;100.00
9740;BME280;4909;42.680;26.324;2023-04-15T03:20:00;97921.16;;;14.50;100.00
9740;BME280;4909;42.680;26.324;2023-04-15T03:22:28;97914.00;;;14.50;100.00
9740;BME280;4909;42.680;26.324;2023-04-15T03:24:54;97922.75;;;14.40;100.00
9740;BME280;4909;42.680;26.324;2023-04-15T03:27:23;97923.47;;;14.54;100.00
9740;BME280;4909;42.680;26.324;2023-04-15T03:29:49;97920.78;;;14.67;100.00
9740;BME280;4909;42.680;26.324;2023-04-15T03:32:16;97895.19;;;14.52;100.00
9740;BME280;4909;42.680;26.324;2023-04-15T03:34:43;97933.31;;;14.66;100.00
9740;BME280;4909;42.680;26.324;2023-04-15T03:37:10;97924.88;;;14.60;100.00
9740;BME280;4909;42.680;26.324;2023-04-15T03:39:36;97914.44;;;14.44;100.00
9740;BME280;4909;42.680;26.324;2023-04-15T03:42:03;97913.78;;;14.41;100.00
9740;BME280;4909;42.680;26.324;2023-04-15T03:44:31;97933.97;;;14.45;100.00
9740;BME280;4909;42.680;26.324;2023-04-15T03:46:58;97933.53;;;14.51;100.00
9740;BME280;4909;42.680;26.324;2023-04-15T03:49:25;97936.31;;;14.62;100.00
9740;BME280;4909;42.680;26.324;2023-04-15T03:51:52;97918.06;;;14.43;100.00
9740;BME280;4909;42.680;26.324;2023-04-15T03:54:18;97907.81;;;14.50;100.00
9740;BME280;4909;42.680;26.324;2023-04-15T03:56:45;97923.06;;;14.48;100.00
9740;BME280;4909;42.680;26.324;2023-04-15T03:59:12;97941.31;;;14.28;100.00
9740;BME280;4909;42.680;26.324;2023-04-15T04:01:40;97970.38;;;14.46;100.00
9740;BME280;4909;42.680;26.324;2023-04-15T04:04:07;97991.34;;;14.52;100.00
9740;BME280;4909;42.680;26.324;2023-04-15T04:06:34;97990.34;;;14.53;100.00
9740;BME280;4909;42.680;26.324;2023-04-15T04:09:00;97986.09;;;14.50;100.00
9740;BME280;4909;42.680;26.324;2023-04-15T04:11:27;97990.81;;;14.47;100.00
9740;BME280;4909;42.680;26.324;2023-04-15T04:13:54;97974.72;;;14.34;100.00
9740;BME280;4909;42.680;26.324;2023-04-15T04:16:20;97995.25;;;14.21;100.00
9740;BME280;4909;42.680;26.324;2023-04-15T04:18:49;97992.19;;;14.40;100.00
9740;BME280;4909;42.680;26.324;2023-04-15T04:21:16;97993.00;;;14.27;100.00
9740;BME280;4909;42.680;26.324;2023-04-15T04:23:42;97992.03;;;14.16;100.00
9740;BME280;4909;42.680;26.324;2023-04-15T04:26:09;97970.25;;;14.09;100.00
9740;BME280;4909;42.680;26.324;2023-04-15T04:28:36;97976.97;;;14.15;100.00
9740;BME280;4909;42.680;26.324;2023-04-15T04:31:05;97981.56;;;13.87;100.00
9740;BME280;4909;42.680;26.324;2023-04-15T04:33:32;97983.91;;;13.79;100.00
9740;BME280;4909;42.680;26.324;2023-04-15T04:36:00;97992.44;;;13.84;100.00
9740;BME280;4909;42.680;26.324;2023-04-15T04:38:27;97967.69;;;13.95;100.00
9740;BME280;4909;42.680;26.324;2023-04-15T04:40:53;97989.38;;;14.03;100.00
9740;BME280;4909;42.680;26.324;2023-04-15T04:43:20;98006.97;;;14.06;100.00
9740;BME280;4909;42.680;26.324;2023-04-15T04:45:47;98022.88;;;14.07;100.00
9740;BME280;4909;42.680;26.324;2023-04-15T04:48:14;98021.16;;;14.19;100.00
9740;BME280;4909;42.680;26.324;2023-04-15T04:50:41;98003.16;;;14.22;100.00
9740;BME280;4909;42.680;26.324;2023-04-15T04:53:09;98014.38;;;14.27;100.00
9740;BME280;4909;42.680;26.324;2023-04-15T04:55:36;98004.00;;;14.23;100.00
9740;BME280;4909;42.680;26.324;2023-04-15T04:58:03;98012.22;;;14.32;100.00
9740;BME280;4909;42.680;26.324;2023-04-15T05:00:29;98020.03;;;14.35;100.00
9740;BME280;4909;42.680;26.324;2023-04-15T05:02:56;98010.94;;;14.25;100.00
9740;BME280;4909;42.680;26.324;2023-04-15T05:05:23;98016.16;;;14.14;100.00
9740;BME280;4909;42.680;26.324;2023-04-15T05:07:50;98021.19;;;14.31;100.00
9740;BME280;4909;42.680;26.324;2023-04-15T05:10:19;98006.47;;;14.13;100.00
9740;BME280;4909;42.680;26.324;2023-04-15T05:12:46;97986.78;;;14.14;100.00
9740;BME280;4909;42.680;26.324;2023-04-15T05:15:12;98007.00;;;14.31;100.00
9740;BME280;4909;42.680;26.324;2023-04-15T05:17:39;98022.06;;;14.45;100.00
9740;BME280;4909;42.680;26.324;2023-04-15T05:20:07;98038.22;;;14.56;100.00
9740;BME280;4909;42.680;26.324;2023-04-15T05:22:34;98049.41;;;14.73;100.00
9740;BME280;4909;42.680;26.324;2023-04-15T05:25:00;98050.81;;;14.54;100.00
9740;BME280;4909;42.680;26.324;2023-04-15T05:27:29;98026.47;;;14.46;100.00
9740;BME280;4909;42.680;26.324;2023-04-15T05:29:56;98046.22;;;14.56;100.00
9740;BME280;4909;42.680;26.324;2023-04-15T05:32:22;98042.91;;;14.52;100.00
9740;BME280;4909;42.680;26.324;2023-04-15T05:34:49;98052.22;;;14.47;100.00
9740;BME280;4909;42.680;26.324;2023-04-15T05:37:16;98058.69;;;14.43;100.00
9740;BME280;4909;42.680;26.324;2023-04-15T05:39:45;98048.94;;;14.29;100.00
9740;BME280;4909;42.680;26.324;2023-04-15T05:42:12;98054.44;;;14.40;100.00
9740;BME280;4909;42.680;26.324;2023-04-15T05:44:40;98055.63;;;14.36;100.00
9740;BME280;4909;42.680;26.324;2023-04-15T05:47:07;98062.97;;;14.45;100.00
9740;BME280;4909;42.680;26.324;2023-04-15T05:49:35;98065.53;;;14.59;100.00
9740;BME280;4909;42.680;26.324;2023-04-15T05:52:02;98055.06;;;14.82;100.00
9740;BME280;4909;42.680;26.324;2023-04-15T05:54:28;98061.19;;;14.71;100.00
9740;BME280;4909;42.680;26.324;2023-04-15T05:56:55;98067.66;;;14.67;100.00
9740;BME280;4909;42.680;26.324;2023-04-15T05:59:22;98079.66;;;14.61;100.00
9740;BME280;4909;42.680;26.324;2023-04-15T06:01:50;98090.09;;;14.77;100.00
9740;BME280;4909;42.680;26.324;2023-04-15T06:04:18;98076.75;;;14.77;100.00
9740;BME280;4909;42.680;26.324;2023-04-15T06:06:44;98086.72;;;14.75;100.00
9740;BME280;4909;42.680;26.324;2023-04-15T06:09:11;98082.44;;;14.47;100.00
9740;BME280;4909;42.680;26.324;2023-04-15T06:11:38;98101.44;;;14.55;100.00
9740;BME280;4909;42.680;26.324;2023-04-15T06:14:05;98091.63;;;14.56;100.00
9740;BME280;4909;42.680;26.324;2023-04-15T06:16:32;98078.56;;;14.39;100.00
9740;BME280;4909;42.680;26.324;2023-04-15T06:19:02;98078.38;;;14.42;100.00
9740;BME280;4909;42.680;26.324;2023-04-15T06:21:29;98079.78;;;14.47;100.00
9740;BME280;4909;42.680;26.324;2023-04-15T06:23:57;98063.84;;;14.71;100.00
9740;BME280;4909;42.680;26.324;2023-04-15T06:26:23;98080.50;;;14.74;100.00
9740;BME280;4909;42.680;26.324;2023-04-15T06:28:50;98046.16;;;15.06;100.00
9740;BME280;4909;42.680;26.324;2023-04-15T06:31:17;98058.50;;;15.33;100.00
9740;BME280;4909;42.680;26.324;2023-04-15T06:33:45;98086.34;;;15.90;100.00
9740;BME280;4909;42.680;26.324;2023-04-15T06:36:13;98089.34;;;16.09;100.00
9740;BME280;4909;42.680;26.324;2023-04-15T06:38:39;98090.88;;;16.01;100.00
9740;BME280;4909;42.680;26.324;2023-04-15T06:41:06;98099.59;;;16.27;100.00
9740;BME280;4909;42.680;26.324;2023-04-15T06:43:33;98103.53;;;16.34;100.00
9740;BME280;4909;42.680;26.324;2023-04-15T06:46:00;98086.91;;;16.18;97.32
9740;BME280;4909;42.680;26.324;2023-04-15T06:48:27;98106.78;;;15.91;96.49
9740;BME280;4909;42.680;26.324;2023-04-15T06:50:54;98100.59;;;15.78;100.00
9740;BME280;4909;42.680;26.324;2023-04-15T06:53:24;98106.38;;;15.85;100.00
9740;BME280;4909;42.680;26.324;2023-04-15T06:55:50;98122.78;;;15.80;98.97
9740;BME280;4909;42.680;26.324;2023-04-15T06:58:17;98125.53;;;15.55;100.00
9740;BME280;4909;42.680;26.324;2023-04-15T07:00:44;98117.44;;;15.18;100.00
9740;BME280;4909;42.680;26.324;2023-04-15T07:03:11;98126.56;;;14.65;100.00
9740;BME280;4909;42.680;26.324;2023-04-15T07:05:39;98129.84;;;14.44;100.00
9740;BME280;4909;42.680;26.324;2023-04-15T07:08:06;98127.75;;;14.61;100.00
9740;BME280;4909;42.680;26.324;2023-04-15T07:10:34;98148.16;;;14.75;100.00
9740;BME280;4909;42.680;26.324;2023-04-15T07:13:01;98116.38;;;14.58;100.00
9740;BME280;4909;42.680;26.324;2023-04-15T07:15:28;98148.69;;;14.93;100.00
9740;BME280;4909;42.680;26.324;2023-04-15T07:17:55;98155.19;;;14.89;100.00
9740;BME280;4909;42.680;26.324;2023-04-15T07:20:21;98147.78;;;14.54;100.00
9740;BME280;4909;42.680;26.324;2023-04-15T07:22:48;98161.28;;;14.65;100.00
9740;BME280;4909;42.680;26.324;2023-04-15T07:25:15;98166.72;;;14.76;100.00
9740;BME280;4909;42.680;26.324;2023-04-15T07:27:43;98173.34;;;14.96;100.00
9740;BME280;4909;42.680;26.324;2023-04-15T07:30:10;98172.09;;;15.14;100.00
9740;BME280;4909;42.680;26.324;2023-04-15T07:32:38;98180.84;;;15.42;100.00
9740;BME280;4909;42.680;26.324;2023-04-15T07:35:05;98192.28;;;15.44;100.00
9740;BME280;4909;42.680;26.324;2023-04-15T07:37:32;98195.59;;;15.35;100.00
9740;BME280;4909;42.680;26.324;2023-04-15T07:39:59;98185.69;;;15.24;100.00
9740;BME280;4909;42.680;26.324;2023-04-15T07:42:25;98200.44;;;15.91;100.00
9740;BME280;4909;42.680;26.324;2023-04-15T07:44:55;98189.00;;;16.13;100.00
9740;BME280;4909;42.680;26.324;2023-04-15T07:47:22;98197.44;;;16.20;100.00
9740;BME280;4909;42.680;26.324;2023-04-15T07:49:49;98202.69;;;16.45;100.00
9740;BME280;4909;42.680;26.324;2023-04-15T07:52:16;98197.03;;;16.84;100.00
9740;BME280;4909;42.680;26.324;2023-04-15T07:54:44;98209.16;;;17.12;100.00
9740;BME280;4909;42.680;26.324;2023-04-15T07:57:12;98197.72;;;17.55;100.00
9740;BME280;4909;42.680;26.324;2023-04-15T07:59:39;98218.59;;;17.85;100.00
9740;BME280;4909;42.680;26.324;2023-04-15T08:02:07;98211.72;;;17.58;100.00
9740;BME280;4909;42.680;26.324;2023-04-15T08:04:34;98222.19;;;17.17;100.00
9740;BME280;4909;42.680;26.324;2023-04-15T08:07:02;98231.16;;;16.93;100.00
9740;BME280;4909;42.680;26.324;2023-04-15T08:09:29;98222.75;;;16.98;100.00
9740;BME280;4909;42.680;26.324;2023-04-15T08:11:56;98232.66;;;16.50;99.05
9740;BME280;4909;42.680;26.324;2023-04-15T08:14:23;98190.72;;;16.62;100.00
9740;BME280;4909;42.680;26.324;2023-04-15T08:16:50;98228.84;;;17.00;100.00
9740;BME280;4909;42.680;26.324;2023-04-15T08:19:18;98206.69;;;17.09;100.00
9740;BME280;4909;42.680;26.324;2023-04-15T08:21:45;98234.16;;;17.57;100.00
9740;BME280;4909;42.680;26.324;2023-04-15T08:24:12;98230.31;;;18.49;100.00
9740;BME280;4909;42.680;26.324;2023-04-15T08:26:39;98245.13;;;19.48;95.25
9740;BME280;4909;42.680;26.324;2023-04-15T08:29:06;98235.84;;;19.62;84.99
9740;BME280;4909;42.680;26.324;2023-04-15T08:31:33;98223.94;;;20.35;88.53
9740;BME280;4909;42.680;26.324;2023-04-15T08:34:00;98246.25;;;20.85;79.87
9740;BME280;4909;42.680;26.324;2023-04-15T08:36:28;98220.84;;;20.97;85.48
9740;BME280;4909;42.680;26.324;2023-04-15T08:38:55;98233.50;;;21.72;84.70
9740;BME280;4909;42.680;26.324;2023-04-15T08:41:23;98201.34;;;22.78;70.81
9740;BME280;4909;42.680;26.324;2023-04-15T08:43:56;98221.53;;;23.45;72.98
9740;BME280;4909;42.680;26.324;2023-04-15T08:46:23;98218.81;;;24.05;68.83
9740;BME280;4909;42.680;26.324;2023-04-15T08:48:51;98214.69;;;23.41;71.60
9740;BME280;4909;42.680;26.324;2023-04-15T08:51:22;98205.59;;;22.99;74.11
9740;BME280;4909;42.680;26.324;2023-04-15T08:53:50;98220.25;;;23.14;71.35
9740;BME280;4909;42.680;26.324;2023-04-15T08:56:18;98217.25;;;22.99;69.25
9740;BME280;4909;42.680;26.324;2023-04-15T08:58:45;98189.94;;;21.85;69.70
9740;BME280;4909;42.680;26.324;2023-04-15T09:01:12;98212.28;;;21.31;75.01
9740;BME280;4909;42.680;26.324;2023-04-15T09:03:39;98215.28;;;21.28;71.57
9740;BME280;4909;42.680;26.324;2023-04-15T09:06:07;98211.06;;;21.15;74.00
9740;BME280;4909;42.680;26.324;2023-04-15T09:08:35;98205.38;;;21.18;78.18
9740;BME280;4909;42.680;26.324;2023-04-15T09:11:03;98208.19;;;20.98;75.02
9740;BME280;4909;42.680;26.324;2023-04-15T09:13:30;98204.38;;;20.52;75.29
9740;BME280;4909;42.680;26.324;2023-04-15T09:15:57;98204.16;;;20.25;75.40
9740;BME280;4909;42.680;26.324;2023-04-15T09:18:27;98199.84;;;20.72;80.45
9740;BME280;4909;42.680;26.324;2023-04-15T09:20:55;98183.34;;;20.94;76.70
9740;BME280;4909;42.680;26.324;2023-04-15T09:23:22;98198.13;;;20.90;75.72
9740;BME280;4909;42.680;26.324;2023-04-15T09:25:49;98208.06;;;20.02;75.12
9740;BME280;4909;42.680;26.324;2023-04-15T09:28:24;98188.41;;;19.40;75.44
9740;BME280;4909;42.680;26.324;2023-04-15T09:30:55;98186.84;;;18.96;77.95
9740;BME280;4909;42.680;26.324;2023-04-15T09:33:22;98191.63;;;18.72;78.91
9740;BME280;4909;42.680;26.324;2023-04-15T09:35:58;98174.38;;;18.95;78.28
9740;BME280;4909;42.680;26.324;2023-04-15T09:38:25;98185.91;;;18.65;80.97
9740;BME280;4909;42.680;26.324;2023-04-15T09:40:52;98184.69;;;19.11;79.11
9740;BME280;4909;42.680;26.324;2023-04-15T09:43:19;98199.09;;;19.31;76.96
9740;BME280;4909;42.680;26.324;2023-04-15T09:45:49;98196.09;;;19.24;75.30
9740;BME280;4909;42.680;26.324;2023-04-15T09:48:17;98182.63;;;19.03;78.06
9740;BME280;4909;42.680;26.324;2023-04-15T09:50:46;98183.63;;;19.44;78.30
9740;BME280;4909;42.680;26.324;2023-04-15T09:53:17;98178.44;;;19.62;76.65
9740;BME280;4909;42.680;26.324;2023-04-15T09:55:45;98175.34;;;20.06;75.14
9740;BME280;4909;42.680;26.324;2023-04-15T09:58:19;98172.16;;;20.31;73.35
9740;BME280;4909;42.680;26.324;2023-04-15T10:00:49;98182.94;;;20.70;71.71
9740;BME280;4909;42.680;26.324;2023-04-15T10:03:18;98179.25;;;20.71;70.07
9740;BME280;4909;42.680;26.324;2023-04-15T10:05:47;98176.13;;;20.95;70.19
9740;BME280;4909;42.680;26.324;2023-04-15T10:08:17;98177.56;;;20.79;67.28
9740;BME280;4909;42.680;26.324;2023-04-15T10:10:44;98156.41;;;19.17;70.78
9740;BME280;4909;42.680;26.324;2023-04-15T10:13:13;98161.47;;;18.89;75.57
9740;BME280;4909;42.680;26.324;2023-04-15T10:15:43;98156.31;;;19.48;72.63
9740;BME280;4909;42.680;26.324;2023-04-15T10:18:13;98155.91;;;20.03;71.31
9740;BME280;4909;42.680;26.324;2023-04-15T10:20:41;98167.63;;;20.61;71.80
9740;BME280;4909;42.680;26.324;2023-04-15T10:23:09;98155.44;;;20.57;70.26
9740;BME280;4909;42.680;26.324;2023-04-15T10:25:37;98168.47;;;20.90;70.73
9740;BME280;4909;42.680;26.324;2023-04-15T10:28:05;98170.16;;;20.91;65.81
9740;BME280;4909;42.680;26.324;2023-04-15T10:30:32;98154.16;;;20.42;66.46
9740;BME280;4909;42.680;26.324;2023-04-15T10:32:59;98143.50;;;20.30;66.69
9740;BME280;4909;42.680;26.324;2023-04-15T10:35:29;98149.75;;;20.50;66.65
9740;BME280;4909;42.680;26.324;2023-04-15T10:37:56;98144.25;;;19.92;68.51
9740;BME280;4909;42.680;26.324;2023-04-15T10:40:25;98135.28;;;19.73;68.97
9740;BME280;4909;42.680;26.324;2023-04-15T10:42:53;98144.53;;;19.80;69.93
9740;BME280;4909;42.680;26.324;2023-04-15T10:45:20;98143.50;;;20.40;72.78
9740;BME280;4909;42.680;26.324;2023-04-15T10:47:51;98134.25;;;20.81;71.35
9740;BME280;4909;42.680;26.324;2023-04-15T10:50:19;98146.84;;;21.09;66.04
9740;BME280;4909;42.680;26.324;2023-04-15T10:52:49;98150.06;;;21.32;67.93
9740;BME280;4909;42.680;26.324;2023-04-15T10:55:20;98128.13;;;21.45;69.25
9740;BME280;4909;42.680;26.324;2023-04-15T10:57:51;98144.72;;;21.50;65.41
9740;BME280;4909;42.680;26.324;2023-04-15T11:00:19;98143.75;;;21.51;63.01
9740;BME280;4909;42.680;26.324;2023-04-15T11:02:52;98151.75;;;21.43;64.30
9740;BME280;4909;42.680;26.324;2023-04-15T11:05:20;98138.78;;;21.00;68.04
9740;BME280;4909;42.680;26.324;2023-04-15T11:07:50;98148.97;;;21.25;68.60
9740;BME280;4909;42.680;26.324;2023-04-15T11:13:22;98146.66;;;21.67;68.03
9740;BME280;4909;42.680;26.324;2023-04-15T11:15:54;98152.78;;;21.22;65.54
9740;BME280;4909;42.680;26.324;2023-04-15T11:18:23;98153.22;;;21.28;67.47
9740;BME280;4909;42.680;26.324;2023-04-15T11:20:51;98133.47;;;21.08;65.72
9740;BME280;4909;42.680;26.324;2023-04-15T11:23:28;98150.03;;;20.76;63.93
9740;BME280;4909;42.680;26.324;2023-04-15T11:25:55;98154.56;;;20.85;63.18
9740;BME280;4909;42.680;26.324;2023-04-15T11:28:24;98166.63;;;20.91;60.73
9740;BME280;4909;42.680;26.324;2023-04-15T11:30:51;98154.69;;;20.83;64.80
9740;BME280;4909;42.680;26.324;2023-04-15T11:33:18;98148.16;;;20.86;66.67
9740;BME280;4909;42.680;26.324;2023-04-15T11:35:45;98153.97;;;20.91;61.19
9740;BME280;4909;42.680;26.324;2023-04-15T11:38:13;98139.63;;;20.23;66.30
9740;BME280;4909;42.680;26.324;2023-04-15T11:40:42;98151.38;;;20.03;64.60
9740;BME280;4909;42.680;26.324;2023-04-15T11:43:10;98147.00;;;20.12;67.20
9740;BME280;4909;42.680;26.324;2023-04-15T11:45:47;98137.63;;;20.16;72.49
9740;BME280;4909;42.680;26.324;2023-04-15T11:48:14;98139.81;;;20.51;67.88
9740;BME280;4909;42.680;26.324;2023-04-15T11:50:41;98126.19;;;20.52;70.11
9740;BME280;4909;42.680;26.324;2023-04-15T11:53:09;98140.50;;;20.62;68.74
9740;BME280;4909;42.680;26.324;2023-04-15T11:55:47;98111.88;;;20.42;65.03
9740;BME280;4909;42.680;26.324;2023-04-15T11:58:15;98139.25;;;20.37;66.88
9740;BME280;4909;42.680;26.324;2023-04-15T12:00:47;98125.56;;;20.01;67.58
9740;BME280;4909;42.680;26.324;2023-04-15T12:03:17;98124.72;;;20.10;67.90
9740;BME280;4909;42.680;26.324;2023-04-15T12:06:17;98125.56;;;20.10;68.37
9740;BME280;4909;42.680;26.324;2023-04-15T12:08:52;98123.59;;;20.03;68.31
9740;BME280;4909;42.680;26.324;2023-04-15T12:11:34;98075.16;;;19.63;64.63
9740;BME280;4909;42.680;26.324;2023-04-15T12:14:06;98122.59;;;20.04;67.96
9740;BME280;4909;42.680;26.324;2023-04-15T12:16:34;98099.03;;;19.96;72.25
9740;BME280;4909;42.680;26.324;2023-04-15T12:19:04;98123.59;;;20.22;67.76
9740;BME280;4909;42.680;26.324;2023-04-15T12:21:36;98115.22;;;20.25;65.28
9740;BME280;4909;42.680;26.324;2023-04-15T12:24:04;98112.09;;;20.29;63.81
9740;BME280;4909;42.680;26.324;2023-04-15T12:26:35;98096.69;;;20.41;71.24
9740;BME280;4909;42.680;26.324;2023-04-15T12:29:04;98120.06;;;20.69;60.71
9740;BME280;4909;42.680;26.324;2023-04-15T12:31:31;98106.03;;;20.56;71.42
9740;BME280;4909;42.680;26.324;2023-04-15T12:33:58;98116.53;;;20.69;60.55
9740;BME280;4909;42.680;26.324;2023-04-15T12:36:26;98104.03;;;20.58;65.51
9740;BME280;4909;42.680;26.324;2023-04-15T12:38:54;98107.59;;;20.59;60.55
9740;BME280;4909;42.680;26.324;2023-04-15T12:41:21;98098.50;;;20.69;63.61
9740;BME280;4909;42.680;26.324;2023-04-15T12:43:50;98103.84;;;20.89;66.08
9740;BME280;4909;42.680;26.324;2023-04-15T12:46:17;98091.16;;;21.08;70.64
9740;BME280;4909;42.680;26.324;2023-04-15T12:48:44;98103.91;;;21.25;67.97
9740;BME280;4909;42.680;26.324;2023-04-15T12:51:11;98100.56;;;21.04;63.59
9740;BME280;4909;42.680;26.324;2023-04-15T12:53:38;98098.03;;;20.83;65.51
9740;BME280;4909;42.680;26.324;2023-04-15T12:56:05;98053.44;;;20.43;65.59
9740;BME280;4909;42.680;26.324;2023-04-15T12:58:32;98108.53;;;20.77;62.00
9740;BME280;4909;42.680;26.324;2023-04-15T13:01:00;98102.06;;;20.60;63.65
9740;BME280;4909;42.680;26.324;2023-04-15T13:03:27;98111.44;;;20.47;60.97
9740;BME280;4909;42.680;26.324;2023-04-15T13:05:53;98098.63;;;20.29;61.88
9740;BME280;4909;42.680;26.324;2023-04-15T13:08:22;98087.44;;;20.44;70.34
9740;BME280;4909;42.680;26.324;2023-04-15T13:10:49;98098.38;;;20.61;70.41